sensor_id;sensor_type;location;lat;lon;timestamp;P1;durP1;ratioP1;P2;durP2;ratioP2
43504;SDS011;29098;48.184;16.298;2023-03-11T18:24:46;2.80;;;1.83;;
43504;SDS011;29098;48.184;16.298;2023-03-11T18:27:11;3.35;;;1.38;;
43504;SDS011;29098;48.184;16.298;2023-03-11T18:29:37;3.05;;;1.52;;
43504;SDS011;29098;48.184;16.298;2023-03-11T18:32:02;3.35;;;1.70;;
43504;SDS011;29098;48.184;16.298;2023-03-11T18:34:27;3.63;;;1.65;;
43504;SDS011;29098;48.184;16.298;2023-03-11T18:36:53;2.70;;;1.30;;
43504;SDS011;29098;48.184;16.298;2023-03-11T18:39:18;3.50;;;1.80;;
43504;SDS011;29098;48.184;16.298;2023-03-11T18:41:44;3.88;;;2.22;;
43504;SDS011;29098;48.184;16.298;2023-03-11T18:44:09;3.28;;;2.00;;
43504;SDS011;29098;48.184;16.298;2023-03-11T18:46:35;4.30;;;1.85;;
43504;SDS011;29098;48.184;16.298;2023-03-11T18:49:01;4.70;;;1.50;;
43504;SDS011;29098;48.184;16.298;2023-03-11T18:51:28;5.05;;;1.48;;
43504;SDS011;29098;48.184;16.298;2023-03-11T18:53:55;6.97;;;1.20;;
43504;SDS011;29098;48.184;16.298;2023-03-11T18:56:21;3.60;;;1.58;;
43504;SDS011;29098;48.184;16.298;2023-03-11T18:58:46;3.17;;;1.40;;
43504;SDS011;29098;48.184;16.298;2023-03-11T19:01:13;3.65;;;1.83;;
43504;SDS011;29098;48.184;16.298;2023-03-11T19:03:43;3.72;;;1.35;;
43504;SDS011;29098;48.184;16.298;2023-03-11T19:06:12;3.15;;;1.40;;
43504;SDS011;29098;48.184;16.298;2023-03-11T19:08:38;2.72;;;1.42;;
43504;SDS011;29098;48.184;16.298;2023-03-11T19:11:08;2.10;;;1.60;;
43504;SDS011;29098;48.184;16.298;2023-03-11T19:13:34;2.20;;;1.30;;
43504;SDS011;29098;48.184;16.298;2023-03-11T19:16:02;4.88;;;1.77;;
43504;SDS011;29098;48.184;16.298;2023-03-11T19:18:29;3.35;;;1.80;;
43504;SDS011;29098;48.184;16.298;2023-03-11T19:20:56;4.00;;;1.85;;
43504;SDS011;29098;48.184;16.298;2023-03-11T19:23:22;3.88;;;1.38;;
43504;SDS011;29098;48.184;16.298;2023-03-11T19:25:48;2.40;;;1.40;;
43504;SDS011;29098;48.184;16.298;2023-03-11T19:28:14;4.63;;;1.73;;
43504;SDS011;29098;48.184;16.298;2023-03-11T19:30:40;4.18;;;1.92;;
43504;SDS011;29098;48.184;16.298;2023-03-11T19:33:05;3.28;;;1.65;;
43504;SDS011;29098;48.184;16.298;2023-03-11T19:35:30;3.90;;;1.88;;
43504;SDS011;29098;48.184;16.298;2023-03-11T19:37:56;4.22;;;1.70;;
43504;SDS011;29098;48.184;16.298;2023-03-11T19:40:23;4.90;;;1.80;;
43504;SDS011;29098;48.184;16.298;2023-03-11T19:42:48;4.47;;;1.70;;
43504;SDS011;29098;48.184;16.298;2023-03-11T19:45:14;4.22;;;2.05;;
43504;SDS011;29098;48.184;16.298;2023-03-11T19:47:39;1.92;;;1.27;;
43504;SDS011;29098;48.184;16.298;2023-03-11T19:50:07;3.30;;;1.60;;
43504;SDS011;29098;48.184;16.298;2023-03-11T20:22:28;4.20;;;1.95;;
43504;SDS011;29098;48.184;16.298;2023-03-11T20:24:53;4.30;;;1.95;;
43504;SDS011;29098;48.184;16.298;2023-03-11T20:27:19;3.58;;;2.10;;
43504;SDS011;29098;48.184;16.298;2023-03-11T20:29:44;4.53;;;2.28;;
43504;SDS011;29098;48.184;16.298;2023-03-11T20:32:10;4.13;;;2.15;;
43504;SDS011;29098;48.184;16.298;2023-03-11T20:34:35;3.10;;;1.55;;
43504;SDS011;29098;48.184;16.298;2023-03-11T20:37:00;5.30;;;2.45;;
43504;SDS011;29098;48.184;16.298;2023-03-11T20:39:26;5.50;;;2.05;;
43504;SDS011;29098;48.184;16.298;2023-03-11T20:41:52;3.78;;;1.75;;
43504;SDS011;29098;48.184;16.298;2023-03-11T20:44:17;3.38;;;1.70;;
43504;SDS011;29098;48.184;16.298;2023-03-11T20:46:43;4.32;;;2.10;;
43504;SDS011;29098;48.184;16.298;2023-03-11T20:49:08;3.15;;;1.60;;
43504;SDS011;29098;48.184;16.298;2023-03-11T20:51:34;3.38;;;1.88;;
43504;SDS011;29098;48.184;16.298;2023-03-11T20:54:00;3.25;;;1.70;;
43504;SDS011;29098;48.184;16.298;2023-03-11T20:56:26;5.15;;;1.95;;
43504;SDS011;29098;48.184;16.298;2023-03-11T20:58:52;5.75;;;2.25;;
43504;SDS011;29098;48.184;16.298;2023-03-11T21:01:21;3.35;;;1.60;;
43504;SDS011;29098;48.184;16.298;2023-03-11T21:03:48;4.03;;;2.00;;
43504;SDS011;29098;48.184;16.298;2023-03-11T21:06:19;3.28;;;1.70;;
43504;SDS011;29098;48.184;16.298;2023-03-11T21:08:49;3.78;;;1.75;;
43504;SDS011;29098;48.184;16.298;2023-03-11T21:11:17;5.95;;;2.00;;
43504;SDS011;29098;48.184;16.298;2023-03-11T21:13:43;5.55;;;1.70;;
43504;SDS011;29098;48.184;16.298;2023-03-11T21:16:09;3.17;;;1.88;;
43504;SDS011;29098;48.184;16.298;2023-03-11T21:18:35;3.60;;;2.35;;
43504;SDS011;29098;48.184;16.298;2023-03-11T21:21:00;4.03;;;1.63;;
43504;SDS011;29098;48.184;16.298;2023-03-11T21:23:27;5.40;;;2.25;;
43504;SDS011;29098;48.184;16.298;2023-03-11T21:25:57;4.25;;;2.15;;
43504;SDS011;29098;48.184;16.298;2023-03-11T21:28:23;3.45;;;1.70;;
43504;SDS011;29098;48.184;16.298;2023-03-11T21:30:56;3.40;;;2.00;;
43504;SDS011;29098;48.184;16.298;2023-03-11T21:33:23;4.07;;;2.20;;
43504;SDS011;29098;48.184;16.298;2023-03-11T21:35:53;2.78;;;1.65;;
43504;SDS011;29098;48.184;16.298;2023-03-11T21:38:19;4.18;;;1.73;;
43504;SDS011;29098;48.184;16.298;2023-03-11T21:40:45;7.57;;;2.13;;
43504;SDS011;29098;48.184;16.298;2023-03-11T21:43:11;4.40;;;2.00;;
43504;SDS011;29098;48.184;16.298;2023-03-11T21:45:36;3.45;;;1.90;;
43504;SDS011;29098;48.184;16.298;2023-03-11T21:48:02;2.85;;;1.70;;
43504;SDS011;29098;48.184;16.298;2023-03-11T21:50:30;3.80;;;2.10;;
43504;SDS011;29098;48.184;16.298;2023-03-11T21:52:56;4.70;;;1.77;;
43504;SDS011;29098;48.184;16.298;2023-03-11T21:55:21;3.72;;;2.13;;
43504;SDS011;29098;48.184;16.298;2023-03-11T21:57:47;3.75;;;2.03;;
43504;SDS011;29098;48.184;16.298;2023-03-11T22:00:12;7.15;;;2.28;;
43504;SDS011;29098;48.184;16.298;2023-03-11T22:02:38;3.13;;;1.83;;
43504;SDS011;29098;48.184;16.298;2023-03-11T22:05:04;6.00;;;2.10;;
43504;SDS011;29098;48.184;16.298;2023-03-11T22:07:30;3.47;;;1.60;;
43504;SDS011;29098;48.184;16.298;2023-03-11T22:09:55;4.95;;;1.85;;
43504;SDS011;29098;48.184;16.298;2023-03-11T22:12:21;4.40;;;2.20;;
43504;SDS011;29098;48.184;16.298;2023-03-11T22:14:46;3.30;;;1.70;;
43504;SDS011;29098;48.184;16.298;2023-03-11T22:17:12;3.88;;;2.10;;
43504;SDS011;29098;48.184;16.298;2023-03-11T22:19:37;4.38;;;1.60;;
43504;SDS011;29098;48.184;16.298;2023-03-11T22:22:03;5.78;;;2.00;;
43504;SDS011;29098;48.184;16.298;2023-03-11T22:24:28;4.10;;;2.00;;
43504;SDS011;29098;48.184;16.298;2023-03-11T22:26:54;4.35;;;2.13;;
43504;SDS011;29098;48.184;16.298;2023-03-11T22:29:19;4.22;;;2.22;;
43504;SDS011;29098;48.184;16.298;2023-03-11T22:31:45;5.13;;;2.63;;
43504;SDS011;29098;48.184;16.298;2023-03-11T22:34:10;6.80;;;2.80;;
43504;SDS011;29098;48.184;16.298;2023-03-11T22:36:36;4.40;;;2.45;;
43504;SDS011;29098;48.184;16.298;2023-03-11T22:39:01;4.57;;;2.30;;
43504;SDS011;29098;48.184;16.298;2023-03-11T22:41:28;4.25;;;2.15;;
43504;SDS011;29098;48.184;16.298;2023-03-11T22:43:54;3.95;;;2.35;;
43504;SDS011;29098;48.184;16.298;2023-03-11T22:46:20;3.58;;;1.73;;
43504;SDS011;29098;48.184;16.298;2023-03-11T22:48:45;5.10;;;2.55;;
43504;SDS011;29098;48.184;16.298;2023-03-11T22:51:11;4.38;;;2.40;;
43504;SDS011;29098;48.184;16.298;2023-03-11T22:53:37;4.97;;;2.13;;
43504;SDS011;29098;48.184;16.298;2023-03-11T22:56:06;3.92;;;2.40;;
43504;SDS011;29098;48.184;16.298;2023-03-11T22:58:33;3.33;;;2.03;;
43504;SDS011;29098;48.184;16.298;2023-03-11T23:00:59;5.60;;;2.55;;
43504;SDS011;29098;48.184;16.298;2023-03-11T23:03:25;6.30;;;2.63;;
43504;SDS011;29098;48.184;16.298;2023-03-11T23:05:50;5.25;;;2.42;;
43504;SDS011;29098;48.184;16.298;2023-03-11T23:08:16;5.68;;;2.70;;
43504;SDS011;29098;48.184;16.298;2023-03-11T23:10:42;7.20;;;2.33;;
43504;SDS011;29098;48.184;16.298;2023-03-11T23:13:11;4.20;;;2.00;;
43504;SDS011;29098;48.184;16.298;2023-03-11T23:15:40;3.85;;;2.50;;
43504;SDS011;29098;48.184;16.298;2023-03-11T23:18:09;4.55;;;2.38;;
43504;SDS011;29098;48.184;16.298;2023-03-11T23:20:36;6.03;;;2.60;;
43504;SDS011;29098;48.184;16.298;2023-03-11T23:23:02;4.43;;;2.45;;
43504;SDS011;29098;48.184;16.298;2023-03-11T23:25:29;5.30;;;2.97;;
43504;SDS011;29098;48.184;16.298;2023-03-11T23:27:54;5.13;;;2.50;;
43504;SDS011;29098;48.184;16.298;2023-03-11T23:30:20;6.88;;;2.78;;
43504;SDS011;29098;48.184;16.298;2023-03-11T23:32:45;4.63;;;2.40;;
43504;SDS011;29098;48.184;16.298;2023-03-11T23:35:11;5.55;;;2.60;;
43504;SDS011;29098;48.184;16.298;2023-03-11T23:37:36;4.78;;;2.88;;
43504;SDS011;29098;48.184;16.298;2023-03-11T23:40:02;5.88;;;3.58;;
43504;SDS011;29098;48.184;16.298;2023-03-11T23:42:30;5.30;;;2.90;;
43504;SDS011;29098;48.184;16.298;2023-03-11T23:44:57;7.05;;;2.70;;
43504;SDS011;29098;48.184;16.298;2023-03-11T23:47:23;8.35;;;3.75;;
43504;SDS011;29098;48.184;16.298;2023-03-11T23:49:48;7.22;;;3.78;;
43504;SDS011;29098;48.184;16.298;2023-03-11T23:52:14;6.20;;;3.00;;
43504;SDS011;29098;48.184;16.298;2023-03-11T23:54:39;8.02;;;3.33;;
43504;SDS011;29098;48.184;16.298;2023-03-11T23:57:05;8.93;;;3.47;;
43504;SDS011;29098;48.184;16.298;2023-03-11T23:59:30;11.23;;;3.25;;
